createdAt,value
2017-07-09T00:02:03.177Z,77.05
2017-07-09T00:04:30.606Z,77.09
2017-07-09T00:06:58.055Z,77.81
2017-07-09T00:09:25.566Z,77.84
2017-07-09T00:11:52.974Z,77.83
2017-07-09T00:14:20.411Z,77.95
2017-07-09T00:16:47.835Z,78.16
2017-07-09T00:19:15.262Z,78.51
2017-07-09T00:21:42.730Z,78.78
2017-07-09T00:24:10.178Z,79.27
2017-07-09T00:26:37.593Z,79.47
2017-07-09T00:29:05.063Z,79.96
2017-07-09T00:31:32.498Z,80.00
2017-07-09T00:33:59.943Z,80.14
2017-07-09T00:36:27.367Z,79.90
2017-07-09T00:38:54.811Z,79.49
2017-07-09T00:41:22.237Z,79.65
2017-07-09T00:43:49.650Z,79.29
2017-07-09T00:46:17.106Z,79.33
2017-07-09T00:48:44.541Z,79.20
2017-07-09T00:51:11.962Z,79.46
2017-07-09T00:53:39.386Z,79.48
2017-07-09T00:56:06.809Z,79.52
2017-07-09T00:58:34.267Z,79.79
2017-07-09T01:01:01.685Z,79.79
2017-07-09T01:03:29.104Z,79.74
2017-07-09T01:05:56.542Z,79.49
2017-07-09T01:08:24.234Z,79.55
2017-07-09T01:10:51.675Z,79.51
2017-07-09T01:13:19.110Z,79.48
2017-07-09T01:15:46.569Z,79.65
2017-07-09T01:18:14.009Z,79.80
2017-07-09T01:20:41.421Z,79.94
2017-07-09T01:23:08.886Z,80.08
2017-07-09T01:25:36.302Z,79.98
2017-07-09T01:28:03.749Z,79.95
2017-07-09T01:30:31.170Z,80.05
2017-07-09T01:32:58.638Z,80.21
2017-07-09T01:35:26.095Z,80.28
2017-07-09T01:37:53.511Z,80.28
2017-07-09T01:40:20.951Z,80.30
2017-07-09T01:42:48.371Z,80.43
2017-07-09T01:45:15.778Z,80.47
2017-07-09T01:47:43.214Z,80.40
2017-07-09T01:50:10.634Z,80.66
2017-07-09T01:52:38.086Z,80.83
2017-07-09T01:55:05.546Z,81.00
2017-07-09T01:57:32.963Z,81.24
2017-07-09T02:00:00.434Z,81.20
2017-07-09T02:02:27.846Z,81.55
2017-07-09T02:04:55.269Z,82.20
2017-07-09T02:07:22.687Z,82.74
2017-07-09T02:09:50.109Z,83.35
2017-07-09T02:12:17.541Z,83.31
2017-07-09T02:14:44.954Z,83.39
2017-07-09T02:17:12.371Z,83.07
2017-07-09T02:19:39.811Z,82.60
2017-07-09T02:22:07.237Z,82.21
2017-07-09T02:24:34.674Z,81.91
2017-07-09T02:27:02.123Z,81.70
2017-07-09T02:29:29.568Z,81.77
2017-07-09T02:31:57.034Z,81.86
2017-07-09T02:34:24.510Z,81.84
2017-07-09T02:36:51.947Z,81.88
2017-07-09T02:39:19.375Z,82.90
2017-07-09T02:41:46.787Z,82.94
2017-07-09T02:44:14.210Z,83.52
2017-07-09T02:46:41.643Z,84.09
2017-07-09T02:49:09.070Z,83.83
2017-07-09T02:51:36.519Z,84.32
2017-07-09T02:54:03.993Z,84.31
2017-07-09T02:56:31.436Z,84.38
2017-07-09T02:58:58.873Z,84.11
2017-07-09T03:01:26.286Z,83.72
2017-07-09T03:03:53.746Z,83.44
2017-07-09T03:06:21.199Z,83.50
2017-07-09T03:08:48.632Z,83.47
2017-07-09T03:11:16.133Z,82.96
2017-07-09T03:13:43.580Z,82.90
2017-07-09T03:16:11.007Z,82.75
2017-07-09T03:18:38.434Z,82.71
2017-07-09T03:21:05.876Z,83.00
2017-07-09T03:23:33.310Z,82.83
2017-07-09T03:26:00.739Z,83.00
2017-07-09T03:28:28.153Z,82.97
2017-07-09T03:30:55.578Z,82.90
2017-07-09T03:33:23.019Z,82.83
2017-07-09T03:35:50.560Z,82.85
2017-07-09T03:38:17.983Z,82.65
2017-07-09T03:40:45.395Z,82.27
2017-07-09T03:43:12.831Z,82.16
2017-07-09T03:45:40.304Z,82.22
2017-07-09T03:48:07.759Z,81.94
2017-07-09T03:50:35.201Z,81.83
2017-07-09T03:53:02.635Z,81.80
2017-07-09T03:55:30.082Z,81.46
2017-07-09T03:57:57.514Z,81.59
2017-07-09T04:00:24.967Z,81.80
2017-07-09T04:02:52.395Z,81.85
2017-07-09T04:05:19.814Z,81.98
2017-07-09T04:07:47.246Z,81.93
2017-07-09T04:10:14.664Z,82.03
2017-07-09T04:12:42.091Z,81.80
2017-07-09T04:15:09.514Z,81.81
2017-07-09T04:17:36.943Z,81.74
2017-07-09T04:20:04.371Z,81.69
2017-07-09T04:22:31.796Z,81.84
2017-07-09T04:24:59.255Z,81.95
2017-07-09T04:27:26.682Z,82.10
2017-07-09T04:29:54.178Z,81.63
2017-07-09T04:32:21.618Z,81.55
2017-07-09T04:34:49.058Z,81.80
2017-07-09T04:37:16.498Z,82.11
2017-07-09T04:39:43.929Z,82.35
2017-07-09T04:42:11.395Z,81.95
2017-07-09T04:44:38.875Z,82.16
2017-07-09T04:47:06.494Z,82.13
2017-07-09T04:49:33.912Z,82.17
2017-07-09T04:52:01.373Z,81.68
2017-07-09T04:54:35.186Z,81.72
2017-07-09T04:57:02.979Z,81.43
2017-07-09T04:59:31.730Z,81.69
2017-07-09T05:01:59.174Z,82.02
2017-07-09T05:04:26.610Z,82.05
2017-07-09T05:06:54.056Z,82.11
2017-07-09T05:09:21.469Z,82.26
2017-07-09T05:11:50.032Z,82.19
2017-07-09T05:14:18.354Z,82.02
2017-07-09T05:16:45.774Z,81.92
2017-07-09T05:19:13.242Z,81.98
2017-07-09T05:21:42.594Z,81.90
2017-07-09T05:24:10.306Z,81.66
2017-07-09T05:26:37.730Z,82.04
2017-07-09T05:29:05.144Z,81.83
2017-07-09T05:31:32.605Z,81.99
2017-07-09T05:34:00.015Z,81.93
2017-07-09T05:36:27.689Z,81.64
2017-07-09T05:38:55.109Z,80.91
2017-07-09T05:41:22.562Z,80.91
2017-07-09T05:43:50.035Z,80.64
2017-07-09T05:46:17.466Z,80.09
2017-07-09T05:48:45.058Z,79.56
2017-07-09T05:51:12.475Z,79.76
2017-07-09T05:53:39.902Z,79.50
2017-07-09T05:56:07.330Z,78.67
2017-07-09T05:58:34.752Z,78.00
2017-07-09T06:01:02.346Z,78.20
2017-07-09T06:03:29.782Z,78.39
2017-07-09T06:05:57.216Z,78.46
2017-07-09T06:08:24.638Z,78.38
2017-07-09T06:10:52.055Z,76.50
2017-07-09T06:13:19.526Z,77.10
2017-07-09T06:15:46.947Z,75.74
2017-07-09T06:18:20.479Z,75.87
2017-07-09T06:20:47.899Z,76.51
2017-07-09T06:23:15.318Z,76.15
2017-07-09T06:25:42.753Z,76.54
2017-07-09T06:28:10.162Z,76.68
2017-07-09T06:30:37.886Z,76.37
2017-07-09T06:33:05.330Z,76.66
2017-07-09T06:35:32.751Z,75.17
2017-07-09T06:38:00.187Z,75.16
2017-07-09T06:40:27.616Z,75.27
2017-07-09T06:42:55.081Z,75.29
2017-07-09T06:45:22.505Z,75.83
2017-07-09T06:47:49.919Z,73.92
2017-07-09T06:50:18.206Z,73.43
2017-07-09T06:52:45.647Z,72.87
2017-07-09T06:55:13.513Z,73.08
2017-07-09T06:57:40.951Z,72.71
2017-07-09T07:00:08.380Z,71.54
2017-07-09T07:02:35.805Z,72.58
2017-07-09T07:05:03.219Z,73.74
2017-07-09T07:07:30.681Z,71.68
2017-07-09T07:09:58.108Z,71.41
2017-07-09T07:12:25.527Z,71.27
2017-07-09T07:14:52.959Z,71.39
2017-07-09T07:17:20.388Z,72.14
2017-07-09T07:19:48.150Z,71.77
2017-07-09T07:22:15.570Z,71.48
2017-07-09T07:24:43.068Z,71.47
2017-07-09T07:27:10.494Z,70.59
2017-07-09T07:29:37.912Z,70.78
2017-07-09T07:32:05.640Z,70.23
2017-07-09T07:34:33.055Z,70.15
2017-07-09T07:37:00.473Z,69.43
2017-07-09T07:39:27.934Z,67.86
2017-07-09T07:41:55.339Z,68.44
2017-07-09T07:44:23.138Z,67.38
2017-07-09T07:46:51.487Z,67.78
2017-07-09T07:49:18.910Z,66.69
2017-07-09T07:51:46.350Z,68.49
2017-07-09T07:54:13.786Z,67.35
2017-07-09T07:56:41.375Z,69.12
2017-07-09T07:59:09.011Z,67.43
2017-07-09T08:01:36.435Z,66.90
2017-07-09T08:04:03.908Z,68.31
2017-07-09T08:06:31.392Z,68.94
2017-07-09T08:08:58.828Z,68.75
2017-07-09T08:11:26.244Z,68.06
2017-07-09T08:13:53.690Z,67.14
2017-07-09T08:16:21.112Z,67.00
2017-07-09T08:18:48.527Z,68.09
2017-07-09T08:21:16.427Z,67.39
2017-07-09T08:23:43.853Z,66.35
2017-07-09T08:26:11.295Z,64.45
2017-07-09T08:28:38.717Z,63.16
2017-07-09T08:31:06.151Z,61.87
2017-07-09T08:33:33.573Z,62.67
2017-07-09T08:36:01.006Z,62.25
2017-07-09T08:38:28.432Z,63.89
2017-07-09T08:40:55.859Z,61.94
2017-07-09T08:43:23.278Z,63.97
2017-07-09T08:45:51.003Z,63.67
2017-07-09T08:48:18.431Z,63.96
2017-07-09T08:50:45.847Z,65.44
2017-07-09T08:53:13.277Z,65.29
2017-07-09T08:55:40.694Z,66.26
2017-07-09T08:58:08.130Z,65.25
2017-07-09T09:00:35.542Z,62.89
2017-07-09T09:03:02.968Z,63.37
2017-07-09T09:05:30.392Z,64.75
2017-07-09T09:07:57.811Z,65.22
2017-07-09T09:10:25.243Z,61.96
2017-07-09T09:12:52.679Z,60.95
2017-07-09T09:15:20.090Z,58.33
2017-07-09T09:17:47.528Z,57.65
2017-07-09T09:20:14.939Z,58.55
2017-07-09T09:22:42.400Z,59.81
2017-07-09T09:25:09.810Z,58.41
2017-07-09T09:27:37.227Z,59.09
2017-07-09T09:30:04.654Z,61.64
2017-07-09T09:32:32.070Z,61.43
2017-07-09T09:34:59.542Z,57.70
2017-07-09T09:37:26.957Z,58.33
2017-07-09T09:39:54.384Z,56.90
2017-07-09T09:42:21.818Z,53.95
2017-07-09T09:44:49.233Z,54.53
2017-07-09T09:47:16.663Z,54.89
2017-07-09T09:49:44.083Z,54.28
2017-07-09T09:52:11.512Z,52.84
2017-07-09T09:54:38.939Z,54.38
2017-07-09T09:57:06.368Z,53.15
2017-07-09T09:59:33.837Z,54.19
2017-07-09T10:02:01.255Z,54.35
2017-07-09T10:04:28.665Z,53.94
2017-07-09T10:06:56.096Z,55.19
2017-07-09T10:09:23.519Z,54.71
2017-07-09T10:11:50.958Z,55.95
2017-07-09T10:14:19.338Z,54.66
2017-07-09T10:16:46.799Z,53.89
2017-07-09T10:19:14.265Z,54.52
2017-07-09T10:21:41.680Z,46.51
2017-07-09T10:24:09.131Z,48.23
2017-07-09T10:26:36.545Z,46.98
2017-07-09T10:29:03.980Z,47.08
2017-07-09T10:31:31.399Z,51.31
2017-07-09T10:33:58.814Z,51.51
2017-07-09T10:36:26.246Z,52.95
2017-07-09T10:38:53.667Z,46.78
2017-07-09T10:41:21.085Z,47.70
2017-07-09T10:43:48.511Z,46.01
2017-07-09T10:46:15.923Z,46.98
2017-07-09T10:48:43.356Z,47.77
2017-07-09T10:51:10.770Z,48.09
2017-07-09T10:53:38.187Z,47.73
2017-07-09T10:56:05.709Z,49.24
2017-07-09T10:58:33.122Z,48.46
2017-07-09T11:01:00.556Z,48.40
2017-07-09T11:03:28.002Z,47.14
2017-07-09T11:05:55.423Z,47.61
2017-07-09T11:08:22.847Z,46.69
2017-07-09T11:10:51.278Z,49.32
2017-07-09T11:13:18.720Z,50.03
2017-07-09T11:15:46.136Z,49.00
2017-07-09T11:18:13.546Z,49.54
2017-07-09T11:20:40.975Z,48.88
2017-07-09T11:23:08.386Z,49.25
2017-07-09T11:25:35.822Z,49.39
2017-07-09T11:28:03.242Z,51.19
2017-07-09T11:30:30.665Z,48.35
2017-07-09T11:32:58.094Z,47.11
2017-07-09T11:35:25.511Z,43.84
2017-07-09T11:37:52.947Z,45.06
2017-07-09T11:40:20.366Z,45.68
2017-07-09T11:42:47.774Z,42.03
2017-07-09T11:45:15.202Z,44.07
2017-07-09T11:47:42.721Z,43.71
2017-07-09T11:50:10.159Z,42.71
2017-07-09T11:52:37.570Z,43.42
2017-07-09T11:55:04.995Z,41.25
2017-07-09T11:57:32.431Z,42.14
2017-07-09T11:59:59.846Z,44.46
2017-07-09T12:02:27.279Z,42.55
2017-07-09T12:04:54.699Z,39.82
2017-07-09T12:07:22.126Z,41.96
2017-07-09T12:09:49.556Z,42.04
2017-07-09T12:12:16.975Z,42.29
2017-07-09T12:14:44.407Z,39.38
2017-07-09T12:17:11.822Z,39.98
2017-07-09T12:19:39.243Z,38.83
2017-07-09T12:22:06.670Z,41.93
2017-07-09T12:24:34.083Z,40.09
2017-07-09T12:27:01.527Z,45.16
2017-07-09T12:29:28.939Z,39.33
2017-07-09T12:31:56.350Z,40.66
2017-07-09T12:34:23.770Z,40.09
2017-07-09T12:36:51.187Z,39.23
2017-07-09T12:39:18.621Z,38.75
2017-07-09T12:41:46.031Z,40.62
2017-07-09T12:44:13.458Z,38.78
2017-07-09T12:46:40.870Z,37.06
2017-07-09T12:49:08.286Z,35.79
2017-07-09T12:51:35.711Z,37.75
2017-07-09T12:54:03.137Z,37.45
2017-07-09T12:56:30.574Z,37.77
2017-07-09T12:58:57.994Z,37.33
2017-07-09T13:01:25.414Z,36.29
2017-07-09T13:03:52.841Z,35.78
2017-07-09T13:06:20.251Z,35.87
2017-07-09T13:08:47.687Z,37.34
2017-07-09T13:11:15.099Z,39.32
2017-07-09T13:13:42.523Z,38.23
2017-07-09T13:16:09.957Z,35.21
2017-07-09T13:18:37.377Z,39.27
2017-07-09T13:21:04.823Z,37.71
2017-07-09T13:23:32.234Z,38.74
2017-07-09T13:25:59.657Z,37.02
2017-07-09T13:28:27.078Z,35.82
2017-07-09T13:30:54.494Z,38.62
2017-07-09T13:33:21.923Z,38.86
2017-07-09T13:35:49.338Z,38.79
2017-07-09T13:38:16.758Z,39.20
2017-07-09T13:40:44.187Z,38.58
2017-07-09T13:43:11.599Z,38.68
2017-07-09T13:45:39.031Z,37.68
2017-07-09T13:48:06.449Z,37.91
2017-07-09T13:50:33.872Z,38.24
2017-07-09T13:53:01.308Z,37.57
2017-07-09T13:55:28.722Z,36.87
2017-07-09T13:57:56.141Z,36.40
2017-07-09T14:00:23.604Z,38.56
2017-07-09T14:02:51.026Z,38.01
2017-07-09T14:05:18.446Z,40.48
2017-07-09T14:07:45.875Z,38.26
2017-07-09T14:10:13.286Z,37.46
2017-07-09T14:12:40.695Z,40.85
2017-07-09T14:15:08.129Z,36.23
2017-07-09T14:17:35.553Z,37.06
2017-07-09T14:20:03.002Z,37.00
2017-07-09T14:22:30.426Z,36.21
2017-07-09T14:24:57.842Z,35.90
2017-07-09T14:27:25.287Z,38.22
2017-07-09T14:29:52.703Z,35.83
2017-07-09T14:32:20.446Z,35.17
2017-07-09T14:34:47.867Z,34.06
2017-07-09T14:37:15.292Z,35.54
2017-07-09T14:39:42.752Z,35.24
2017-07-09T14:42:10.306Z,37.84
2017-07-09T14:44:37.751Z,38.60
2017-07-09T14:47:05.170Z,36.54
2017-07-09T14:49:32.592Z,35.14
2017-07-09T14:52:00.010Z,35.26
2017-07-09T14:54:27.432Z,35.17
2017-07-09T14:56:54.865Z,36.90
2017-07-09T14:59:22.290Z,35.95
2017-07-09T15:01:49.729Z,35.34
2017-07-09T15:04:17.154Z,36.02
2017-07-09T15:06:44.570Z,39.27
2017-07-09T15:09:12.002Z,37.14
2017-07-09T15:11:39.426Z,36.13
2017-07-09T15:14:07.466Z,38.00
2017-07-09T15:16:34.943Z,37.26
2017-07-09T15:19:02.330Z,36.61
2017-07-09T15:21:29.755Z,37.32
2017-07-09T15:23:57.157Z,35.38
2017-07-09T15:26:24.584Z,37.35
2017-07-09T15:28:52.004Z,37.36
2017-07-09T15:31:19.419Z,40.67
2017-07-09T15:33:46.871Z,36.64
2017-07-09T15:36:14.295Z,36.80
2017-07-09T15:38:42.290Z,40.29
2017-07-09T15:41:10.094Z,37.99
2017-07-09T15:43:41.179Z,39.95
2017-07-09T15:46:08.615Z,39.28
2017-07-09T15:48:36.027Z,40.08
2017-07-09T15:51:03.438Z,40.68
2017-07-09T15:53:30.858Z,38.06
2017-07-09T15:55:58.715Z,39.31
2017-07-09T15:58:26.148Z,39.30
2017-07-09T16:00:54.359Z,40.40
2017-07-09T16:03:21.814Z,36.63
2017-07-09T16:05:49.237Z,40.07
2017-07-09T16:08:16.654Z,40.67
2017-07-09T16:10:44.087Z,38.87
2017-07-09T16:13:11.502Z,40.98
2017-07-09T16:15:39.514Z,40.33
2017-07-09T16:18:06.979Z,42.12
2017-07-09T16:20:34.454Z,40.82
2017-07-09T16:23:02.478Z,41.23
2017-07-09T16:25:29.903Z,41.21
2017-07-09T16:27:57.315Z,41.44
2017-07-09T16:30:24.906Z,40.97
2017-07-09T16:32:52.318Z,40.62
2017-07-09T16:35:20.091Z,41.34
2017-07-09T16:37:47.506Z,41.84
2017-07-09T16:40:14.975Z,41.60
2017-07-09T16:42:43.338Z,41.73
2017-07-09T16:45:10.746Z,41.99
2017-07-09T16:47:38.192Z,41.69
2017-07-09T16:50:05.610Z,41.20
2017-07-09T16:52:33.033Z,41.32
2017-07-09T16:55:01.199Z,41.48
2017-07-09T16:57:28.628Z,41.76
2017-07-09T16:59:56.059Z,42.53
2017-07-09T17:02:23.472Z,41.95
2017-07-09T17:04:50.974Z,41.29
2017-07-09T17:07:18.403Z,42.02
2017-07-09T17:09:46.526Z,41.93
2017-07-09T17:12:14.050Z,42.58
2017-07-09T17:14:41.410Z,41.53
2017-07-09T17:17:08.822Z,42.22
2017-07-09T17:19:36.239Z,42.95
2017-07-09T17:22:03.682Z,42.43
2017-07-09T17:24:31.123Z,42.85
2017-07-09T17:26:58.542Z,43.53
2017-07-09T17:29:25.950Z,43.44
2017-07-09T17:31:53.381Z,44.62
2017-07-09T17:34:20.794Z,43.72
2017-07-09T17:36:48.224Z,44.52
2017-07-09T17:39:15.642Z,43.27
2017-07-09T17:41:43.059Z,44.01
2017-07-09T17:44:10.491Z,44.35
2017-07-09T17:46:37.913Z,44.24
2017-07-09T17:49:05.341Z,43.22
2017-07-09T17:51:32.759Z,42.84
2017-07-09T17:54:00.177Z,43.24
2017-07-09T17:56:27.608Z,43.34
2017-07-09T17:58:55.019Z,43.67
2017-07-09T18:01:22.496Z,43.38
2017-07-09T18:03:49.906Z,43.43
2017-07-09T18:06:17.315Z,43.96
2017-07-09T18:08:44.738Z,44.18
2017-07-09T18:11:12.157Z,44.17
2017-07-09T18:13:39.587Z,44.88
2017-07-09T18:16:07.005Z,44.23
2017-07-09T18:18:34.420Z,44.37
2017-07-09T18:21:01.843Z,44.76
2017-07-09T18:23:29.329Z,45.25
2017-07-09T18:25:57.102Z,44.88
2017-07-09T18:28:24.509Z,45.14
2017-07-09T18:30:51.927Z,46.42
2017-07-09T18:33:19.346Z,46.87
2017-07-09T18:35:46.767Z,48.09
2017-07-09T18:38:14.202Z,47.31
2017-07-09T18:40:41.655Z,47.93
2017-07-09T18:43:09.067Z,48.08
2017-07-09T18:45:36.494Z,48.27
2017-07-09T18:48:03.910Z,48.58
2017-07-09T18:50:31.346Z,48.70
2017-07-09T18:52:58.763Z,48.68
2017-07-09T18:55:26.184Z,49.10
2017-07-09T18:57:53.622Z,49.19
2017-07-09T19:00:21.064Z,49.75
2017-07-09T19:02:48.557Z,50.07
2017-07-09T19:05:15.979Z,49.91
2017-07-09T19:07:43.383Z,49.61
2017-07-09T19:10:14.099Z,50.74
2017-07-09T19:12:41.511Z,50.58
2017-07-09T19:15:08.979Z,50.74
2017-07-09T19:17:36.395Z,51.55
2017-07-09T19:20:03.809Z,51.46
2017-07-09T19:22:31.272Z,51.51
2017-07-09T19:24:58.684Z,51.52
2017-07-09T19:27:26.190Z,52.06
2017-07-09T19:29:53.602Z,51.69
2017-07-09T19:32:21.048Z,51.89
2017-07-09T19:34:48.493Z,51.67
2017-07-09T19:37:15.909Z,51.82
2017-07-09T19:39:43.343Z,52.33
2017-07-09T19:42:10.754Z,51.93
2017-07-09T19:44:38.175Z,52.48
2017-07-09T19:47:05.631Z,52.66
2017-07-09T19:49:33.054Z,52.76
2017-07-09T19:52:00.515Z,52.69
2017-07-09T19:54:27.929Z,52.65
2017-07-09T19:56:55.343Z,53.49
2017-07-09T19:59:22.834Z,52.97
2017-07-09T20:01:50.258Z,53.23
2017-07-09T20:04:17.690Z,53.05
2017-07-09T20:06:45.099Z,53.48
2017-07-09T20:09:12.519Z,53.75
2017-07-09T20:11:39.983Z,55.76
2017-07-09T20:14:07.422Z,56.18
2017-07-09T20:16:34.854Z,55.91
2017-07-09T20:19:02.286Z,54.39
2017-07-09T20:21:29.699Z,53.87
2017-07-09T20:23:57.115Z,53.32
2017-07-09T20:26:24.558Z,53.78
2017-07-09T20:28:51.970Z,53.99
2017-07-09T20:31:19.427Z,53.62
2017-07-09T20:33:46.852Z,53.43
2017-07-09T20:36:14.250Z,53.71
2017-07-09T20:38:41.687Z,53.35
2017-07-09T20:41:09.095Z,53.45
2017-07-09T20:43:36.535Z,53.91
2017-07-09T20:46:03.955Z,54.23
2017-07-09T20:48:31.372Z,53.81
2017-07-09T20:50:58.796Z,54.12
2017-07-09T20:53:26.206Z,54.87
2017-07-09T20:55:53.648Z,54.45
2017-07-09T20:58:21.076Z,55.53
2017-07-09T21:00:48.496Z,56.72
2017-07-09T21:03:15.928Z,55.12
2017-07-09T21:05:43.443Z,55.49
2017-07-09T21:08:10.882Z,55.60
2017-07-09T21:10:38.307Z,55.50
2017-07-09T21:13:05.734Z,55.54
2017-07-09T21:15:33.157Z,57.04
2017-07-09T21:18:00.570Z,57.59
2017-07-09T21:20:28.001Z,58.39
2017-07-09T21:22:55.412Z,57.03
2017-07-09T21:25:22.818Z,56.45
2017-07-09T21:27:50.238Z,56.55
2017-07-09T21:30:17.658Z,58.11
2017-07-09T21:32:45.093Z,57.55
2017-07-09T21:35:12.515Z,58.84
2017-07-09T21:37:39.929Z,57.60
2017-07-09T21:40:07.348Z,57.31
2017-07-09T21:42:34.771Z,57.41
2017-07-09T21:45:02.212Z,57.94
2017-07-09T21:47:29.635Z,58.08
2017-07-09T21:49:57.042Z,58.23
2017-07-09T21:52:24.477Z,58.80
2017-07-09T21:54:51.883Z,58.79
2017-07-09T21:57:19.306Z,59.14
2017-07-09T21:59:46.715Z,58.87
2017-07-09T22:02:14.132Z,59.04
2017-07-09T22:04:41.549Z,59.36
2017-07-09T22:07:08.954Z,59.63
2017-07-09T22:09:36.398Z,60.01
2017-07-09T22:12:03.814Z,60.10
2017-07-09T22:14:31.222Z,61.01
2017-07-09T22:16:58.646Z,61.86
2017-07-09T22:19:26.075Z,61.74
2017-07-09T22:21:53.519Z,62.23
2017-07-09T22:24:20.936Z,62.82
2017-07-09T22:26:48.340Z,61.15
2017-07-09T22:29:15.765Z,61.13
2017-07-09T22:31:43.179Z,61.54
2017-07-09T22:34:10.772Z,61.46
2017-07-09T22:36:38.189Z,61.17
2017-07-09T22:39:05.596Z,61.40
2017-07-09T22:41:33.018Z,61.78
2017-07-09T22:44:00.428Z,61.68
2017-07-09T22:46:27.857Z,61.83
2017-07-09T22:48:55.267Z,61.70
2017-07-09T22:51:22.678Z,61.90
2017-07-09T22:53:50.108Z,62.52
2017-07-09T22:56:17.514Z,62.13
2017-07-09T22:58:44.956Z,61.57
2017-07-09T23:01:12.375Z,62.20
2017-07-09T23:03:39.790Z,62.41
2017-07-09T23:06:07.213Z,62.83
2017-07-09T23:08:34.621Z,63.83
2017-07-09T23:11:02.054Z,64.13
2017-07-09T23:13:29.472Z,64.62
2017-07-09T23:15:56.880Z,64.81
2017-07-09T23:18:24.304Z,65.03
2017-07-09T23:20:51.722Z,63.65
2017-07-09T23:23:19.145Z,64.13
2017-07-09T23:25:46.563Z,64.98
2017-07-09T23:28:13.967Z,64.13
2017-07-09T23:30:41.393Z,65.06
2017-07-09T23:33:08.808Z,66.46
2017-07-09T23:35:36.248Z,67.04
2017-07-09T23:38:03.658Z,68.83
2017-07-09T23:40:31.075Z,70.83
2017-07-09T23:42:58.502Z,72.21
2017-07-09T23:45:25.911Z,72.97
2017-07-09T23:47:53.347Z,73.73
2017-07-09T23:50:20.756Z,75.45
2017-07-09T23:52:48.203Z,76.30
2017-07-09T23:55:15.615Z,78.36
2017-07-09T23:57:43.031Z,79.96
